Terminal Aerodrome Forecast
Issued by NWS

Home | Current Version | Previous Version | Text Only | Print | Product List | Glossary On
Versions: 1 2 3 4 5 6 7 8 9 10 11 12 13 14 15 16 17 18 19
000
FTUS43 KICT 282338
TAFHUT
TAF
KHUT 282338Z 2900/2924 16010KT P6SM SCT040
     FM290200 16009KT P6SM BKN035
     FM290500 15010KT P6SM VCTS BKN025CB OVC080
     FM291300 19010KT P6SM SCT020 BKN035
     FM291600 19015KT P6SM BKN035=

USA.gov is the U.S. government's official web portal to all federal, state and local government web resources and services.